AAL203 EHAM-KJFK
Flight info
| Callsign | AAL203 |
|---|---|
| Flight time | N/A |
| Altitude | 38000 |
| Route | IDRID L980 MANGO DCT ENHAQ DCT GAJIT DCT BAPHU DCT LESLU/M084F380 DCT RODEL/M084F390 NATG NICSO/N0477F400 N256B BRADD DCT PLYMM PARCH4 |
| Aircraft | B789/H-SDE1E2E3FGHIJ2J3J4J5M1RWXY/LB1D1 |
Departure
| Time | N/A |
|---|---|
| Airport | Amsterdam Airport Schiphol (EHAM) |
Arrival
| Time | 2026-05-06 20:40 |
|---|---|
| Airport | John F. Kennedy International Airport (KJFK) |
| Time | Latitude | Longitude | Altitude | Speed | Heading |
|---|---|---|---|---|---|
| 2026-05-06 20:33 | 40.84299 | -73.53599 | 2995 ft | 150 kts | 255° |
| 2026-05-06 20:33 | 40.84041 | -73.54980 | 2980 ft | 158 kts | 251° |
| 2026-05-06 20:34 | 40.83662 | -73.56215 | 2976 ft | 157 kts | 248° |
| 2026-05-06 20:34 | 40.83236 | -73.57538 | 2982 ft | 157 kts | 247° |
| 2026-05-06 20:34 | 40.82721 | -73.58798 | 2967 ft | 156 kts | 236° |
| 2026-05-06 20:34 | 40.82074 | -73.59931 | 2958 ft | 155 kts | 235° |
| 2026-05-06 20:35 | 40.81415 | -73.61084 | 2803 ft | 157 kts | 234° |
| 2026-05-06 20:35 | 40.80719 | -73.62204 | 2516 ft | 160 kts | 232° |
| 2026-05-06 20:35 | 40.79916 | -73.63255 | 2177 ft | 163 kts | 221° |
| 2026-05-06 20:35 | 40.78998 | -73.64065 | 2190 ft | 159 kts | 218° |
| 2026-05-06 20:36 | 40.78056 | -73.64844 | 2193 ft | 161 kts | 216° |
| 2026-05-06 20:36 | 40.77096 | -73.65608 | 2180 ft | 163 kts | 214° |
| 2026-05-06 20:36 | 40.76126 | -73.66368 | 2177 ft | 164 kts | 215° |
| 2026-05-06 20:36 | 40.75138 | -73.67145 | 2178 ft | 165 kts | 215° |
| 2026-05-06 20:37 | 40.74207 | -73.67873 | 2172 ft | 145 kts | 215° |
| 2026-05-06 20:37 | 40.73378 | -73.68525 | 2025 ft | 134 kts | 216° |
| 2026-05-06 20:37 | 40.72602 | -73.69137 | 1859 ft | 128 kts | 216° |
| 2026-05-06 20:37 | 40.71838 | -73.69738 | 1696 ft | 127 kts | 216° |
| 2026-05-06 20:38 | 40.71076 | -73.70334 | 1524 ft | 128 kts | 216° |
| 2026-05-06 20:38 | 40.70303 | -73.70955 | 1354 ft | 130 kts | 215° |
| 2026-05-06 20:38 | 40.69534 | -73.71558 | 1183 ft | 129 kts | 214° |
| 2026-05-06 20:38 | 40.68755 | -73.72175 | 1019 ft | 135 kts | 213° |
| 2026-05-06 20:39 | 40.67952 | -73.72808 | 828 ft | 133 kts | 213° |
| 2026-05-06 20:39 | 40.67136 | -73.73439 | 660 ft | 137 kts | 210° |
| 2026-05-06 20:39 | 40.66329 | -73.74074 | 464 ft | 134 kts | 210° |
| 2026-05-06 20:39 | 40.65527 | -73.74699 | 285 ft | 135 kts | 210° |
| 2026-05-06 20:40 | 40.64725 | -73.75330 | 62 ft | 132 kts | 210° |
| 2026-05-06 20:40 | 40.64033 | -73.75865 | 26 ft | 97 kts | 210° |
| 2026-05-06 20:40 | 40.63559 | -73.76236 | 28 ft | 64 kts | 211° |
| 2026-05-06 20:40 | 40.63288 | -73.76525 | 27 ft | 39 kts | 236° |
| 2026-05-06 20:41 | 40.63262 | -73.76776 | 30 ft | 24 kts | 301° |
| 2026-05-06 20:41 | 40.63340 | -73.76944 | 27 ft | 20 kts | 301° |
| 2026-05-06 20:41 | 40.63401 | -73.77078 | 28 ft | 13 kts | 301° |
| 2026-05-06 20:41 | 40.63437 | -73.77157 | 30 ft | 8 kts | 301° |
| 2026-05-06 20:42 | 40.63463 | -73.77215 | 30 ft | 7 kts | 301° |
| 2026-05-06 20:42 | 40.63486 | -73.77267 | 29 ft | 7 kts | 299° |
| 2026-05-06 20:42 | 40.63509 | -73.77320 | 28 ft | 6 kts | 301° |
| 2026-05-06 20:42 | 40.63526 | -73.77356 | 28 ft | 0 kts | 301° |
| 2026-05-06 20:43 | 40.63526 | -73.77358 | 28 ft | 0 kts | 301° |
| 2026-05-06 20:43 | 40.63529 | -73.77363 | 28 ft | 2 kts | 301° |
| 2026-05-06 20:44 | 40.63541 | -73.77390 | 28 ft | 5 kts | 301° |
| 2026-05-06 20:44 | 40.63563 | -73.77438 | 29 ft | 8 kts | 301° |
| 2026-05-06 20:44 | 40.63598 | -73.77513 | 28 ft | 12 kts | 301° |
| 2026-05-06 20:44 | 40.63649 | -73.77622 | 31 ft | 16 kts | 300° |
| 2026-05-06 20:45 | 40.63629 | -73.77722 | 29 ft | 11 kts | 222° |
| 2026-05-06 20:45 | 40.63571 | -73.77787 | 31 ft | 10 kts | 237° |
| 2026-05-06 20:45 | 40.63571 | -73.77844 | 28 ft | 5 kts | 293° |
| 2026-05-06 20:45 | 40.63597 | -73.77878 | 28 ft | 6 kts | 330° |
| 2026-05-06 20:46 | 40.63645 | -73.77895 | 28 ft | 9 kts | 348° |
| 2026-05-06 20:46 | 40.63726 | -73.77910 | 28 ft | 14 kts | 353° |
| 2026-05-06 20:46 | 40.63802 | -73.77940 | 28 ft | 9 kts | 317° |
| 2026-05-06 20:46 | 40.63842 | -73.78009 | 28 ft | 7 kts | 284° |
| 2026-05-06 20:47 | 40.63843 | -73.78034 | 28 ft | 2 kts | 265° |
| 2026-05-06 20:47 | 40.63843 | -73.78035 | 28 ft | 0 kts | 266° |